sensor_id;sensor_type;location;lat;lon;timestamp;pressure;altitude;pressure_sealevel;temperature;humidity
30021;BME280;16861;52.294;7.760;2023-02-28T00:00:51;101297.81;;;5.16;58.69
30021;BME280;16861;52.294;7.760;2023-02-28T00:03:18;101296.03;;;5.19;58.76
30021;BME280;16861;52.294;7.760;2023-02-28T00:05:44;101291.63;;;5.23;58.57
30021;BME280;16861;52.294;7.760;2023-02-28T00:08:11;101287.31;;;5.24;58.36
30021;BME280;16861;52.294;7.760;2023-02-28T00:10:39;101295.09;;;5.27;58.45
30021;BME280;16861;52.294;7.760;2023-02-28T00:13:06;101294.22;;;5.29;58.51
30021;BME280;16861;52.294;7.760;2023-02-28T00:15:33;101291.59;;;5.31;58.61
30021;BME280;16861;52.294;7.760;2023-02-28T00:17:59;101289.81;;;5.33;58.50
30021;BME280;16861;52.294;7.760;2023-02-28T00:20:26;101295.03;;;5.34;58.60
30021;BME280;16861;52.294;7.760;2023-02-28T00:22:54;101290.69;;;5.35;58.77
30021;BME280;16861;52.294;7.760;2023-02-28T00:25:23;101301.06;;;5.37;58.18
30021;BME280;16861;52.294;7.760;2023-02-28T00:27:50;101293.22;;;5.38;58.56
30021;BME280;16861;52.294;7.760;2023-02-28T00:30:22;101287.16;;;5.38;57.76
30021;BME280;16861;52.294;7.760;2023-02-28T00:32:50;101290.59;;;5.41;58.30
30021;BME280;16861;52.294;7.760;2023-02-28T00:35:17;101293.22;;;5.41;58.37
30021;BME280;16861;52.294;7.760;2023-02-28T00:37:44;101289.72;;;5.42;58.30
30021;BME280;16861;52.294;7.760;2023-02-28T00:40:11;101291.47;;;5.43;58.41
30021;BME280;16861;52.294;7.760;2023-02-28T00:42:38;101288.81;;;5.45;58.49
30021;BME280;16861;52.294;7.760;2023-02-28T00:45:06;101283.59;;;5.45;58.15
30021;BME280;16861;52.294;7.760;2023-02-28T00:47:34;101292.28;;;5.47;58.39
30021;BME280;16861;52.294;7.760;2023-02-28T00:50:01;101294.00;;;5.48;58.44
30021;BME280;16861;52.294;7.760;2023-02-28T00:52:27;101284.44;;;5.48;58.87
30021;BME280;16861;52.294;7.760;2023-02-28T00:54:54;101278.31;;;5.51;58.36
30021;BME280;16861;52.294;7.760;2023-02-28T00:57:20;101277.44;;;5.51;58.60
30021;BME280;16861;52.294;7.760;2023-02-28T00:59:47;101287.00;;;5.52;58.45
30021;BME280;16861;52.294;7.760;2023-02-28T01:02:13;101279.19;;;5.50;58.61
30021;BME280;16861;52.294;7.760;2023-02-28T01:04:40;101279.19;;;5.50;58.57
30021;BME280;16861;52.294;7.760;2023-02-28T01:07:06;101274.00;;;5.48;58.52
30021;BME280;16861;52.294;7.760;2023-02-28T01:09:33;101275.72;;;5.48;58.40
30021;BME280;16861;52.294;7.760;2023-02-28T01:12:00;101285.28;;;5.47;58.27
30021;BME280;16861;52.294;7.760;2023-02-28T01:14:26;101279.25;;;5.45;58.08
30021;BME280;16861;52.294;7.760;2023-02-28T01:16:53;101282.75;;;5.43;58.27
30021;BME280;16861;52.294;7.760;2023-02-28T01:19:19;101279.28;;;5.41;57.87
30021;BME280;16861;52.294;7.760;2023-02-28T01:21:46;101278.44;;;5.37;58.20
30021;BME280;16861;52.294;7.760;2023-02-28T01:24:12;101280.25;;;5.33;57.97
30021;BME280;16861;52.294;7.760;2023-02-28T01:26:38;101282.03;;;5.28;58.01
30021;BME280;16861;52.294;7.760;2023-02-28T01:29:05;101286.41;;;5.25;58.06
30021;BME280;16861;52.294;7.760;2023-02-28T01:31:31;101281.25;;;5.20;58.23
30021;BME280;16861;52.294;7.760;2023-02-28T01:33:58;101283.88;;;5.17;58.03
30021;BME280;16861;52.294;7.760;2023-02-28T01:36:25;101282.19;;;5.13;58.25
30021;BME280;16861;52.294;7.760;2023-02-28T01:38:52;101284.81;;;5.08;57.84
30021;BME280;16861;52.294;7.760;2023-02-28T01:41:24;101275.28;;;5.04;57.77
30021;BME280;16861;52.294;7.760;2023-02-28T01:46:19;101282.31;;;4.97;58.23
30021;BME280;16861;52.294;7.760;2023-02-28T01:49:07;101278.91;;;4.89;57.28
30021;BME280;16861;52.294;7.760;2023-02-28T01:51:37;101275.44;;;4.90;58.42
30021;BME280;16861;52.294;7.760;2023-02-28T01:54:09;101285.91;;;4.83;57.79
30021;BME280;16861;52.294;7.760;2023-02-28T01:56:49;101284.19;;;4.79;57.32
30021;BME280;16861;52.294;7.760;2023-02-28T01:59:24;101285.97;;;4.79;57.81
30021;BME280;16861;52.294;7.760;2023-02-28T02:01:53;101279.00;;;4.78;58.67
30021;BME280;16861;52.294;7.760;2023-02-28T02:04:21;101273.81;;;4.76;58.49
30021;BME280;16861;52.294;7.760;2023-02-28T02:06:49;101274.66;;;4.77;58.80
30021;BME280;16861;52.294;7.760;2023-02-28T02:09:16;101272.06;;;4.77;58.74
30021;BME280;16861;52.294;7.760;2023-02-28T02:11:44;101270.31;;;4.76;58.72
30021;BME280;16861;52.294;7.760;2023-02-28T02:28:03;101259.00;;;4.78;58.92
30021;BME280;16861;52.294;7.760;2023-02-28T02:31:04;101259.91;;;4.74;57.59
30021;BME280;16861;52.294;7.760;2023-02-28T02:38:35;101266.00;;;4.76;58.69
30021;BME280;16861;52.294;7.760;2023-02-28T02:41:27;101262.50;;;4.74;57.89
30021;BME280;16861;52.294;7.760;2023-02-28T02:44:11;101266.00;;;4.76;58.28
30021;BME280;16861;52.294;7.760;2023-02-28T02:46:44;101257.28;;;4.77;58.65
30021;BME280;16861;52.294;7.760;2023-02-28T02:49:25;101253.84;;;4.74;57.70
30021;BME280;16861;52.294;7.760;2023-02-28T02:51:53;101253.84;;;4.74;58.58
30021;BME280;16861;52.294;7.760;2023-02-28T02:54:23;101252.13;;;4.69;58.49
30021;BME280;16861;52.294;7.760;2023-02-28T02:56:57;101259.09;;;4.66;58.07
30021;BME280;16861;52.294;7.760;2023-02-28T02:59:28;101266.97;;;4.60;58.14
30021;BME280;16861;52.294;7.760;2023-02-28T03:01:58;101268.75;;;4.54;57.87
30021;BME280;16861;52.294;7.760;2023-02-28T03:04:30;101268.78;;;4.48;57.84
30021;BME280;16861;52.294;7.760;2023-02-28T03:06:58;101274.06;;;4.42;58.29
30021;BME280;16861;52.294;7.760;2023-02-28T03:09:25;101270.63;;;4.35;58.30
30021;BME280;16861;52.294;7.760;2023-02-28T03:11:54;101274.13;;;4.29;58.13
30021;BME280;16861;52.294;7.760;2023-02-28T03:31:07;101276.09;;;3.84;57.82
30021;BME280;16861;52.294;7.760;2023-02-28T03:33:39;101277.84;;;3.82;58.92
30021;BME280;16861;52.294;7.760;2023-02-28T03:36:15;101273.53;;;3.77;59.02
30021;BME280;16861;52.294;7.760;2023-02-28T03:38:51;101274.41;;;3.78;59.56
30021;BME280;16861;52.294;7.760;2023-02-28T03:41:23;101279.63;;;3.76;59.72
30021;BME280;16861;52.294;7.760;2023-02-28T03:44:04;101272.69;;;3.72;58.68
30021;BME280;16861;52.294;7.760;2023-02-28T03:46:36;101278.75;;;3.74;59.43
30021;BME280;16861;52.294;7.760;2023-02-28T03:49:21;101271.81;;;3.72;59.12
30021;BME280;16861;52.294;7.760;2023-02-28T03:51:50;101269.22;;;3.73;59.69
30021;BME280;16861;52.294;7.760;2023-02-28T03:54:23;101273.53;;;3.73;59.66
30021;BME280;16861;52.294;7.760;2023-02-28T03:56:57;101262.28;;;3.72;59.83
30021;BME280;16861;52.294;7.760;2023-02-28T03:59:35;101271.81;;;3.72;59.52
30021;BME280;16861;52.294;7.760;2023-02-28T04:02:02;101275.28;;;3.74;59.61
30021;BME280;16861;52.294;7.760;2023-02-28T04:04:29;101271.81;;;3.73;60.04
30021;BME280;16861;52.294;7.760;2023-02-28T04:07:05;101278.78;;;3.71;59.56
30021;BME280;16861;52.294;7.760;2023-02-28T04:09:32;101275.28;;;3.74;60.39
30021;BME280;16861;52.294;7.760;2023-02-28T04:11:58;101280.50;;;3.75;60.01
30021;BME280;16861;52.294;7.760;2023-02-28T04:14:26;101279.63;;;3.75;60.51
30021;BME280;16861;52.294;7.760;2023-02-28T04:16:52;101282.22;;;3.76;60.32
30021;BME280;16861;52.294;7.760;2023-02-28T04:19:19;101284.81;;;3.78;60.32
30021;BME280;16861;52.294;7.760;2023-02-28T04:21:50;101280.47;;;3.77;59.53
30021;BME280;16861;52.294;7.760;2023-02-28T04:24:23;101286.56;;;3.77;59.69
30021;BME280;16861;52.294;7.760;2023-02-28T04:26:55;101278.75;;;3.77;59.31
30021;BME280;16861;52.294;7.760;2023-02-28T04:29:27;101282.22;;;3.76;59.67
30021;BME280;16861;52.294;7.760;2023-02-28T04:31:55;101282.22;;;3.76;59.86
30021;BME280;16861;52.294;7.760;2023-02-28T04:34:25;101291.75;;;3.74;59.84
30021;BME280;16861;52.294;7.760;2023-02-28T04:36:52;101286.59;;;3.71;59.81
30021;BME280;16861;52.294;7.760;2023-02-28T04:39:38;101280.50;;;3.69;59.67
30021;BME280;16861;52.294;7.760;2023-02-28T04:42:05;101279.66;;;3.65;59.66
30021;BME280;16861;52.294;7.760;2023-02-28T04:44:32;101281.38;;;3.62;59.94
30021;BME280;16861;52.294;7.760;2023-02-28T04:46:58;101282.28;;;3.59;59.83
30021;BME280;16861;52.294;7.760;2023-02-28T04:49:25;101283.16;;;3.57;59.55
30021;BME280;16861;52.294;7.760;2023-02-28T04:51:52;101288.38;;;3.54;59.53
30021;BME280;16861;52.294;7.760;2023-02-28T04:54:19;101290.13;;;3.50;59.21
30021;BME280;16861;52.294;7.760;2023-02-28T04:56:46;101281.44;;;3.46;59.33
30021;BME280;16861;52.294;7.760;2023-02-28T04:59:16;101285.81;;;3.43;59.52
30021;BME280;16861;52.294;7.760;2023-02-28T05:01:47;101283.22;;;3.36;59.08
30021;BME280;16861;52.294;7.760;2023-02-28T05:04:14;101286.69;;;3.35;59.32
30021;BME280;16861;52.294;7.760;2023-02-28T05:06:41;101299.69;;;3.32;59.79
30021;BME280;16861;52.294;7.760;2023-02-28T05:09:09;101297.09;;;3.31;59.51
30021;BME280;16861;52.294;7.760;2023-02-28T05:11:39;101294.53;;;3.28;59.40
30021;BME280;16861;52.294;7.760;2023-02-28T05:14:13;101294.50;;;3.23;59.56
30021;BME280;16861;52.294;7.760;2023-02-28T05:16:41;101295.38;;;3.23;59.85
30021;BME280;16861;52.294;7.760;2023-02-28T05:19:11;101299.72;;;3.23;59.56
30021;BME280;16861;52.294;7.760;2023-02-28T05:21:40;101298.00;;;3.20;60.09
30021;BME280;16861;52.294;7.760;2023-02-28T05:24:12;101294.50;;;3.20;59.92
30021;BME280;16861;52.294;7.760;2023-02-28T05:26:42;101304.06;;;3.19;59.95
30021;BME280;16861;52.294;7.760;2023-02-28T05:29:09;101303.19;;;3.19;59.94
30021;BME280;16861;52.294;7.760;2023-02-28T05:31:37;101308.41;;;3.19;59.98
30021;BME280;16861;52.294;7.760;2023-02-28T05:34:04;101309.28;;;3.18;60.26
30021;BME280;16861;52.294;7.760;2023-02-28T05:36:30;101308.41;;;3.17;59.91
30021;BME280;16861;52.294;7.760;2023-02-28T05:38:57;101311.00;;;3.16;59.64
30021;BME280;16861;52.294;7.760;2023-02-28T05:41:24;101306.66;;;3.16;60.34
30021;BME280;16861;52.294;7.760;2023-02-28T05:43:52;101312.75;;;3.15;60.10
30021;BME280;16861;52.294;7.760;2023-02-28T05:46:19;101320.56;;;3.17;60.49
30021;BME280;16861;52.294;7.760;2023-02-28T05:48:47;101324.00;;;3.16;60.06
30021;BME280;16861;52.294;7.760;2023-02-28T05:51:14;101318.81;;;3.19;60.39
30021;BME280;16861;52.294;7.760;2023-02-28T05:53:41;101324.00;;;3.19;60.32
30021;BME280;16861;52.294;7.760;2023-02-28T05:56:07;101319.69;;;3.21;60.23
30021;BME280;16861;52.294;7.760;2023-02-28T05:58:34;101318.81;;;3.23;60.35
30021;BME280;16861;52.294;7.760;2023-02-28T06:01:35;101324.00;;;3.22;59.69
30021;BME280;16861;52.294;7.760;2023-02-28T06:04:04;101319.66;;;3.29;60.19
30021;BME280;16861;52.294;7.760;2023-02-28T06:06:30;101319.66;;;3.30;60.44
30021;BME280;16861;52.294;7.760;2023-02-28T06:08:57;101317.91;;;3.34;60.83
30021;BME280;16861;52.294;7.760;2023-02-28T06:11:24;101327.44;;;3.35;60.61
30021;BME280;16861;52.294;7.760;2023-02-28T06:13:58;101324.84;;;3.36;60.63
30021;BME280;16861;52.294;7.760;2023-02-28T06:16:30;101331.78;;;3.37;60.17
30021;BME280;16861;52.294;7.760;2023-02-28T06:18:58;101329.19;;;3.39;60.24
30021;BME280;16861;52.294;7.760;2023-02-28T06:21:26;101323.97;;;3.39;59.78
30021;BME280;16861;52.294;7.760;2023-02-28T06:23:55;101323.13;;;3.38;60.07
30021;BME280;16861;52.294;7.760;2023-02-28T06:26:23;101324.84;;;3.38;59.69
30021;BME280;16861;52.294;7.760;2023-02-28T06:28:49;101325.72;;;3.37;60.03
30021;BME280;16861;52.294;7.760;2023-02-28T06:31:17;101325.72;;;3.35;60.09
30021;BME280;16861;52.294;7.760;2023-02-28T06:33:45;101324.00;;;3.34;59.84
30021;BME280;16861;52.294;7.760;2023-02-28T06:36:13;101328.31;;;3.32;59.85
30021;BME280;16861;52.294;7.760;2023-02-28T06:38:40;101324.88;;;3.30;59.42
30021;BME280;16861;52.294;7.760;2023-02-28T06:41:07;101320.53;;;3.28;59.98
30021;BME280;16861;52.294;7.760;2023-02-28T06:43:37;101324.00;;;3.25;59.69
30021;BME280;16861;52.294;7.760;2023-02-28T06:46:07;101332.66;;;3.22;58.99
30021;BME280;16861;52.294;7.760;2023-02-28T06:48:35;101335.31;;;3.21;59.72
30021;BME280;16861;52.294;7.760;2023-02-28T06:51:13;101338.75;;;3.18;59.33
30021;BME280;16861;52.294;7.760;2023-02-28T06:53:40;101343.09;;;3.21;59.75
30021;BME280;16861;52.294;7.760;2023-02-28T06:56:09;101338.75;;;3.18;59.61
30021;BME280;16861;52.294;7.760;2023-02-28T06:58:37;101344.84;;;3.22;60.42
30021;BME280;16861;52.294;7.760;2023-02-28T07:01:04;101344.84;;;3.23;60.21
30021;BME280;16861;52.294;7.760;2023-02-28T07:03:31;101350.03;;;3.26;60.26
30021;BME280;16861;52.294;7.760;2023-02-28T07:06:00;101345.69;;;3.29;60.56
30021;BME280;16861;52.294;7.760;2023-02-28T07:08:27;101350.91;;;3.32;60.48
30021;BME280;16861;52.294;7.760;2023-02-28T07:10:57;101353.47;;;3.33;59.71
30021;BME280;16861;52.294;7.760;2023-02-28T07:13:24;101352.59;;;3.37;60.20
30021;BME280;16861;52.294;7.760;2023-02-28T07:16:05;101354.38;;;3.37;59.17
30021;BME280;16861;52.294;7.760;2023-02-28T07:18:33;101350.00;;;3.41;60.14
30021;BME280;16861;52.294;7.760;2023-02-28T07:21:04;101350.00;;;3.41;59.67
30021;BME280;16861;52.294;7.760;2023-02-28T07:23:31;101352.63;;;3.45;60.33
30021;BME280;16861;52.294;7.760;2023-02-28T07:25:58;101350.88;;;3.47;60.09
30021;BME280;16861;52.294;7.760;2023-02-28T07:28:25;101356.06;;;3.47;60.41
30021;BME280;16861;52.294;7.760;2023-02-28T07:30:52;101352.59;;;3.48;59.66
30021;BME280;16861;52.294;7.760;2023-02-28T07:33:18;101358.69;;;3.49;60.31
30021;BME280;16861;52.294;7.760;2023-02-28T07:35:45;101363.00;;;3.48;60.03
30021;BME280;16861;52.294;7.760;2023-02-28T07:38:12;101361.28;;;3.50;59.83
30021;BME280;16861;52.294;7.760;2023-02-28T07:40:40;101361.28;;;3.50;60.30
30021;BME280;16861;52.294;7.760;2023-02-28T07:43:06;101356.09;;;3.50;59.95
30021;BME280;16861;52.294;7.760;2023-02-28T07:45:33;101363.00;;;3.51;60.15
30021;BME280;16861;52.294;7.760;2023-02-28T07:48:02;101368.22;;;3.51;60.52
30021;BME280;16861;52.294;7.760;2023-02-28T07:50:30;101369.94;;;3.52;60.27
30021;BME280;16861;52.294;7.760;2023-02-28T07:52:58;101369.94;;;3.56;60.76
30021;BME280;16861;52.294;7.760;2023-02-28T07:55:24;101365.63;;;3.56;60.53
30021;BME280;16861;52.294;7.760;2023-02-28T07:57:51;101361.25;;;3.58;60.29
30021;BME280;16861;52.294;7.760;2023-02-28T08:00:18;101361.25;;;3.61;60.48
30021;BME280;16861;52.294;7.760;2023-02-28T08:02:44;101366.47;;;3.64;60.81
30021;BME280;16861;52.294;7.760;2023-02-28T08:05:11;101375.16;;;3.68;60.41
30021;BME280;16861;52.294;7.760;2023-02-28T08:07:37;101370.78;;;3.72;60.98
30021;BME280;16861;52.294;7.760;2023-02-28T08:10:04;101376.88;;;3.75;60.79
30021;BME280;16861;52.294;7.760;2023-02-28T08:12:31;101371.63;;;3.78;60.48
30021;BME280;16861;52.294;7.760;2023-02-28T08:14:58;101373.34;;;3.81;61.16
30021;BME280;16861;52.294;7.760;2023-02-28T08:17:25;101367.28;;;3.85;61.13
30021;BME280;16861;52.294;7.760;2023-02-28T08:19:51;101369.00;;;3.89;60.77
30021;BME280;16861;52.294;7.760;2023-02-28T08:22:18;101375.09;;;3.93;61.15
30021;BME280;16861;52.294;7.760;2023-02-28T08:24:44;101369.84;;;3.96;60.81
30021;BME280;16861;52.294;7.760;2023-02-28T08:27:11;101374.16;;;4.00;60.74
30021;BME280;16861;52.294;7.760;2023-02-28T08:29:38;101368.06;;;4.04;60.44
30021;BME280;16861;52.294;7.760;2023-02-28T08:32:05;101381.94;;;4.10;60.21
30021;BME280;16861;52.294;7.760;2023-02-28T08:34:42;101378.47;;;4.14;59.94
30021;BME280;16861;52.294;7.760;2023-02-28T08:37:11;101377.59;;;4.18;59.79
30021;BME280;16861;52.294;7.760;2023-02-28T08:39:38;101376.69;;;4.22;60.02
30021;BME280;16861;52.294;7.760;2023-02-28T08:42:04;101387.13;;;4.25;59.53
30021;BME280;16861;52.294;7.760;2023-02-28T08:44:33;101378.41;;;4.29;59.17
30021;BME280;16861;52.294;7.760;2023-02-28T08:46:59;101380.13;;;4.34;59.26
30021;BME280;16861;52.294;7.760;2023-02-28T08:49:26;101375.75;;;4.37;59.20
30021;BME280;16861;52.294;7.760;2023-02-28T08:51:52;101383.56;;;4.43;58.97
30021;BME280;16861;52.294;7.760;2023-02-28T08:54:20;101380.91;;;4.48;58.62
30021;BME280;16861;52.294;7.760;2023-02-28T08:56:47;101385.25;;;4.52;58.56
30021;BME280;16861;52.294;7.760;2023-02-28T08:59:14;101379.13;;;4.58;58.29
30021;BME280;16861;52.294;7.760;2023-02-28T09:01:41;101386.94;;;4.61;58.23
30021;BME280;16861;52.294;7.760;2023-02-28T09:04:10;101376.47;;;4.66;58.03
30021;BME280;16861;52.294;7.760;2023-02-28T09:06:40;101375.59;;;4.68;57.67
30021;BME280;16861;52.294;7.760;2023-02-28T09:09:06;101380.78;;;4.72;57.50
30021;BME280;16861;52.294;7.760;2023-02-28T09:11:34;101383.38;;;4.75;57.16
30021;BME280;16861;52.294;7.760;2023-02-28T09:14:01;101376.41;;;4.78;57.18
30021;BME280;16861;52.294;7.760;2023-02-28T09:16:31;101380.72;;;4.82;56.98
30021;BME280;16861;52.294;7.760;2023-02-28T09:18:59;101378.94;;;4.86;57.34
30021;BME280;16861;52.294;7.760;2023-02-28T09:21:26;101377.19;;;4.90;57.40
30021;BME280;16861;52.294;7.760;2023-02-28T09:23:53;101384.13;;;4.92;57.24
30021;BME280;16861;52.294;7.760;2023-02-28T09:26:26;101380.63;;;4.95;55.71
30021;BME280;16861;52.294;7.760;2023-02-28T09:29:04;101379.72;;;5.01;56.42
30021;BME280;16861;52.294;7.760;2023-02-28T09:31:31;101378.84;;;5.05;56.74
30021;BME280;16861;52.294;7.760;2023-02-28T09:33:58;101380.50;;;5.11;56.45
30021;BME280;16861;52.294;7.760;2023-02-28T09:36:26;101376.16;;;5.14;56.55
30021;BME280;16861;52.294;7.760;2023-02-28T09:39:08;101376.09;;;5.20;56.65
30021;BME280;16861;52.294;7.760;2023-02-28T09:41:42;101371.72;;;5.24;54.08
30021;BME280;16861;52.294;7.760;2023-02-28T09:44:37;101373.38;;;5.31;53.85
30021;BME280;16861;52.294;7.760;2023-02-28T09:49:47;101381.97;;;5.44;55.45
30021;BME280;16861;52.294;7.760;2023-02-28T09:52:17;101385.41;;;5.51;55.16
30021;BME280;16861;52.294;7.760;2023-02-28T09:54:45;101376.66;;;5.57;56.05
30021;BME280;16861;52.294;7.760;2023-02-28T09:57:22;101376.59;;;5.61;53.75
30021;BME280;16861;52.294;7.760;2023-02-28T10:05:57;101377.16;;;5.89;53.89
30021;BME280;16861;52.294;7.760;2023-02-28T10:08:33;101371.84;;;5.98;53.56
30021;BME280;16861;52.294;7.760;2023-02-28T10:11:06;101371.78;;;6.06;54.05
30021;BME280;16861;52.294;7.760;2023-02-28T10:13:50;101377.81;;;6.12;52.83
30021;BME280;16861;52.294;7.760;2023-02-28T10:16:21;101379.41;;;6.24;54.55
30021;BME280;16861;52.294;7.760;2023-02-28T10:19:03;101375.84;;;6.32;52.84
30021;BME280;16861;52.294;7.760;2023-02-28T10:21:41;101378.34;;;6.39;52.49
30021;BME280;16861;52.294;7.760;2023-02-28T10:24:20;101384.31;;;6.51;53.69
30021;BME280;16861;52.294;7.760;2023-02-28T10:26:52;101375.44;;;6.61;54.00
30021;BME280;16861;52.294;7.760;2023-02-28T10:29:22;101371.78;;;6.72;55.14
30021;BME280;16861;52.294;7.760;2023-02-28T10:31:48;101374.28;;;6.81;55.06
30021;BME280;16861;52.294;7.760;2023-02-28T10:34:15;101373.25;;;6.91;54.81
30021;BME280;16861;52.294;7.760;2023-02-28T10:36:42;101372.22;;;7.00;54.71
30021;BME280;16861;52.294;7.760;2023-02-28T10:39:33;101380.81;;;7.09;52.12
30021;BME280;16861;52.294;7.760;2023-02-28T10:42:00;101372.75;;;7.21;54.32
30021;BME280;16861;52.294;7.760;2023-02-28T10:44:26;101371.78;;;7.27;53.98
30021;BME280;16861;52.294;7.760;2023-02-28T10:46:53;101369.06;;;7.33;53.58
30021;BME280;16861;52.294;7.760;2023-02-28T10:49:27;101373.31;;;7.40;52.60
30021;BME280;16861;52.294;7.760;2023-02-28T10:51:57;101372.28;;;7.49;52.41
30021;BME280;16861;52.294;7.760;2023-02-28T10:54:35;101367.81;;;7.56;51.10
30021;BME280;16861;52.294;7.760;2023-02-28T10:59:45;101369.25;;;7.73;52.79
30021;BME280;16861;52.294;7.760;2023-02-28T11:02:34;101363.94;;;7.76;50.59
30021;BME280;16861;52.294;7.760;2023-02-28T11:05:29;101358.56;;;7.84;50.30
30021;BME280;16861;52.294;7.760;2023-02-28T11:08:17;101353.97;;;7.93;50.47
30021;BME280;16861;52.294;7.760;2023-02-28T11:10:46;101349.38;;;8.05;51.47
30021;BME280;16861;52.294;7.760;2023-02-28T11:13:17;101354.47;;;8.13;50.48
30021;BME280;16861;52.294;7.760;2023-02-28T11:15:54;101359.56;;;8.20;49.87
30021;BME280;16861;52.294;7.760;2023-02-28T11:21:09;101356.63;;;8.34;51.50
30021;BME280;16861;52.294;7.760;2023-02-28T11:23:42;101349.44;;;8.43;51.87
30021;BME280;16861;52.294;7.760;2023-02-28T11:26:09;101343.22;;;8.48;51.31
30021;BME280;16861;52.294;7.760;2023-02-28T11:28:42;101353.59;;;8.55;50.09
30021;BME280;16861;52.294;7.760;2023-02-28T11:36:17;101342.22;;;8.92;49.83
30021;BME280;16861;52.294;7.760;2023-02-28T11:38:47;101344.31;;;9.14;52.81
30021;BME280;16861;52.294;7.760;2023-02-28T11:44:05;101344.97;;;9.56;49.86
30021;BME280;16861;52.294;7.760;2023-02-28T11:49:20;101326.84;;;10.38;52.85
30021;BME280;16861;52.294;7.760;2023-02-28T11:55:00;101336.22;;;11.55;51.25
30021;BME280;16861;52.294;7.760;2023-02-28T12:00:53;101324.63;;;12.98;49.87
30021;BME280;16861;52.294;7.760;2023-02-28T12:06:04;101325.31;;;14.25;48.97
30021;BME280;16861;52.294;7.760;2023-02-28T12:16:34;101304.75;;;16.22;46.85
30021;BME280;16861;52.294;7.760;2023-02-28T12:21:56;101301.22;;;17.15;44.77
30021;BME280;16861;52.294;7.760;2023-02-28T12:27:00;101289.72;;;18.02;44.64
30021;BME280;16861;52.294;7.760;2023-02-28T12:29:33;101285.97;;;18.33;42.53
30021;BME280;16861;52.294;7.760;2023-02-28T12:32:22;101272.25;;;18.53;42.85
30021;BME280;16861;52.294;7.760;2023-02-28T12:34:56;101271.88;;;18.72;41.70
30021;BME280;16861;52.294;7.760;2023-02-28T12:38:12;101271.28;;;18.81;39.96
30021;BME280;16861;52.294;7.760;2023-02-28T12:40:25;101257.84;;;18.96;42.74
30021;BME280;16861;52.294;7.760;2023-02-28T12:42:57;101263.50;;;19.04;39.99
30021;BME280;16861;52.294;7.760;2023-02-28T12:45:30;101262.25;;;19.10;40.38
30021;BME280;16861;52.294;7.760;2023-02-28T12:48:03;101266.44;;;19.14;41.14
30021;BME280;16861;52.294;7.760;2023-02-28T12:50:32;101247.09;;;19.23;41.56
30021;BME280;16861;52.294;7.760;2023-02-28T12:59:12;101249.63;;;19.38;38.15
30021;BME280;16861;52.294;7.760;2023-02-28T13:05:14;101250.59;;;19.37;39.03
30021;BME280;16861;52.294;7.760;2023-02-28T13:07:54;101238.09;;;19.50;38.67
30021;BME280;16861;52.294;7.760;2023-02-28T13:10:38;101233.88;;;19.59;38.29
30021;BME280;16861;52.294;7.760;2023-02-28T13:13:05;101229.41;;;19.73;40.67
30021;BME280;16861;52.294;7.760;2023-02-28T13:15:32;101227.75;;;19.83;40.54
30021;BME280;16861;52.294;7.760;2023-02-28T13:18:04;101231.22;;;19.97;40.03
30021;BME280;16861;52.294;7.760;2023-02-28T13:20:35;101228.00;;;20.04;37.21
30021;BME280;16861;52.294;7.760;2023-02-28T13:23:56;101222.84;;;20.14;37.00
30021;BME280;16861;52.294;7.760;2023-02-28T13:29:02;101224.03;;;20.10;36.33
30021;BME280;16861;52.294;7.760;2023-02-28T13:31:30;101222.19;;;19.86;37.14
30021;BME280;16861;52.294;7.760;2023-02-28T13:34:14;101222.06;;;19.37;35.01
30021;BME280;16861;52.294;7.760;2023-02-28T13:36:41;101225.97;;;19.07;37.02
30021;BME280;16861;52.294;7.760;2023-02-28T14:06:59;101237.03;;;16.29;39.37
30021;BME280;16861;52.294;7.760;2023-02-28T14:09:40;101224.28;;;16.20;37.92
30021;BME280;16861;52.294;7.760;2023-02-28T14:18:05;101213.88;;;16.62;38.83
30021;BME280;16861;52.294;7.760;2023-02-28T14:20:40;101212.41;;;16.87;38.85
30021;BME280;16861;52.294;7.760;2023-02-28T14:23:46;101215.34;;;17.13;39.36
30021;BME280;16861;52.294;7.760;2023-02-28T14:26:32;101217.41;;;17.51;38.75
30021;BME280;16861;52.294;7.760;2023-02-28T14:38:19;101201.88;;;19.33;38.19
30021;BME280;16861;52.294;7.760;2023-02-28T14:40:49;101194.00;;;19.69;39.30
30021;BME280;16861;52.294;7.760;2023-02-28T14:43:25;101199.25;;;19.95;36.19
30021;BME280;16861;52.294;7.760;2023-02-28T14:45:57;101193.31;;;20.16;35.73
30021;BME280;16861;52.294;7.760;2023-02-28T14:48:25;101192.56;;;20.38;38.60
30021;BME280;16861;52.294;7.760;2023-02-28T14:50:56;101198.09;;;20.60;36.81
30021;BME280;16861;52.294;7.760;2023-02-28T14:53:27;101200.09;;;20.80;35.71
30021;BME280;16861;52.294;7.760;2023-02-28T14:55:54;101201.94;;;21.03;37.58
30021;BME280;16861;52.294;7.760;2023-02-28T14:58:28;101185.66;;;21.17;36.73
30021;BME280;16861;52.294;7.760;2023-02-28T15:00:57;101186.97;;;21.23;35.08
30021;BME280;16861;52.294;7.760;2023-02-28T15:03:32;101191.03;;;21.17;33.14
30021;BME280;16861;52.294;7.760;2023-02-28T15:06:19;101187.13;;;21.10;34.00
30021;BME280;16861;52.294;7.760;2023-02-28T15:08:47;101194.41;;;21.08;35.66
30021;BME280;16861;52.294;7.760;2023-02-28T15:11:18;101199.53;;;21.11;34.57
30021;BME280;16861;52.294;7.760;2023-02-28T15:13:49;101192.22;;;21.25;36.21
30021;BME280;16861;52.294;7.760;2023-02-28T15:16:20;101193.44;;;21.43;35.59
30021;BME280;16861;52.294;7.760;2023-02-28T15:21:43;101194.56;;;21.41;32.44
30021;BME280;16861;52.294;7.760;2023-02-28T15:24:56;101186.00;;;21.35;34.45
30021;BME280;16861;52.294;7.760;2023-02-28T15:27:03;101192.22;;;21.25;33.34
30021;BME280;16861;52.294;7.760;2023-02-28T15:29:34;101191.88;;;21.06;32.74
30021;BME280;16861;52.294;7.760;2023-02-28T15:32:05;101193.53;;;20.85;33.29
30021;BME280;16861;52.294;7.760;2023-02-28T15:34:39;101191.13;;;20.46;31.67
30021;BME280;16861;52.294;7.760;2023-02-28T15:39:50;101203.72;;;19.33;32.10
30021;BME280;16861;52.294;7.760;2023-02-28T15:42:19;101197.09;;;18.60;31.80